AYMH

Mount Hagen Kagamuga Airport

Mount Hagen, Papua New Guinea
METAR AYMH 181900Z 00000KT 9999 SCT000 16/16 Q1020
Observed Flight Rules
Aug-18 @ 19:00 UTC (3 hours ago) Visual Flight Rules
Visibility Clouds
10,000+ meters
  • Scattered
Temperatures Readings
Current 16°C / 61°F
Dewpoint 16°C / 61°F
Humidity 100%
Altimeter 30.12" Hg
Pressure 1020 hPa
Elevation 1642
METAR AYMH 181900Z 00000KT 9999 SCT000 16/16 Q1020
Observed Flight Rules
Aug-18 @ 19:00 UTC
(3 hours ago)
VFR
Clouds
  • Scattered
Temperature Dewpoint
16°C / 61°F 16°C / 61°F
Humidity Altimeter Pressure
100% 30.12" Hg 1020 hPa